Terminal Aerodrome Forecast
Issued by NWS

Home | Current Version | Previous Version | Text Only | Print | Product List | Glossary On
Versions: 1 2 3 4 5 6 7 8 9 10 11 12 13 14 15 16
000
FTUS45 KRIW 240520
TAFPNA
TAF
KPNA 240520Z 2406/2506 29006KT P6SM FEW060
     FM240900 30004KT P6SM VCFG SCT003
     FM241600 VRB04KT P6SM SCT200
     FM242100 30007KT P6SM SCT070 BKN200
     FM250500 VRB05KT P6SM BKN070
      AMD LTD TO CLD VIS AND WIND=

USA.gov is the U.S. government's official web portal to all federal, state and local government web resources and services.